Detalii statie REFDANCOM [00001D06]

Toti senzorii

Date Temperatura solului [C]Precipitatii [mm]Voltaj baterie [mV]Leaf Wetness [Min]HC Air temperature [C]HC Relative humidity [%]Punctul de roua [C]
medieminmaxsumaultimatimpmedieminmaxmediemediemin
2017-06-25 06:00:00 0 6844 17.91 17.21 19.32 0 0 0
2017-06-25 07:00:00 0 6904 20.9 19.7 21.77 0 0 0
2017-06-25 08:00:00 0 6962 23.01 21.86 24.59 0 0 0
2017-06-25 09:00:00 0 6992 25.84 24.69 26.92 0 0 0
2017-06-25 10:00:00 0 7196 27.53 26.55 28.53 0 0 0
2017-06-25 11:00:00 0 7206 29.54 28.57 30.7 0 0 0
2017-06-25 12:00:00 0 7206 31.45 30.06 32.71 0 0 0
2017-06-25 13:00:00 0 7196 33.61 32.95 34.27 0 0 0
2017-06-25 14:00:00 0 7186 34.15 32.4 34.94 0 0 0
2017-06-25 15:00:00 0 7196 60 34.13 32.38 35.48 0 0 0
2017-06-25 16:00:00 0 7196 35.27 34.63 35.76 0 0 0
2017-06-25 17:00:00 0 7206 35.32 34.97 35.77 0 0 0
2017-06-25 18:00:00 0 7098 34.18 33.43 34.88 0 0 0
2017-06-25 19:00:00 0 7186 32.29 30.96 33.48 0 0 0
2017-06-25 20:00:00 0 6854 28.55 26.52 30.55 0 0 0
2017-06-25 21:00:00 0 6834 25.05 24.22 26.23 0 0 0
2017-06-25 22:00:00 0 6826 23.75 23.34 24.56 0 0 0
2017-06-25 23:00:00 0 6816 23.16 21.99 23.81 0 0 0
2017-06-26 00:00:00 0 6816 21.1 20.55 21.63 0 0 0
2017-06-26 01:00:00 0 6806 19.27 18.63 19.98 0 0 0
2017-06-26 02:00:00 0 6806 18.41 17.84 19.06 0 0 0
2017-06-26 03:00:00 0 6806 18.19 17.91 18.52 0 0 0
2017-06-26 04:00:00 0 6796 17.61 17.16 18.1 0 0 0
2017-06-26 05:00:00 0 6796 17.57 17.12 17.79 0 0 0
2017-06-26 06:00:00 0 6854 18.41 17.42 19.57 0 0 0
2017-06-26 07:00:00 0 6904 21.58 19.92 22.74 0 0 0
2017-06-26 08:00:00 0 6932 25.8 23.68 26.84 0 0 0
2017-06-26 09:00:00 0 6972 28.03 26.87 28.95 0 0 0
2017-06-26 10:00:00 0 7196 30.92 29.47 32.6 0 0 0
2017-06-26 11:00:00 0 7196 33.7 32.53 34.96 0 0 0
2017-06-26 14:00:00 0 7196 36.05 35.29 36.77 0 0 0
2017-06-26 15:00:00 0 7196 36.47 35.63 36.98 0 0 0
2017-06-26 16:00:00 0 7196 60 36.49 35.6 37.37 0 0 0
2017-06-26 17:00:00 0 7206 35.84 35.25 36.44 0 0 0
2017-06-26 18:00:00 0 7108 34.03 33.01 35.64 0 0 0
2017-06-26 19:00:00 0 7186 32.23 31.41 33.08 0 0 0
2017-06-26 20:00:00 0 6854 29.32 27.49 31.05 0 0 0
2017-06-26 21:00:00 0 6834 27 26.7 27.35 0 0 0
2017-06-26 22:00:00 0 6826 25.46 24.66 27.02 0 0 0
2017-06-26 23:00:00 0 6826 24.86 24.18 25.19 0 0 0
2017-06-27 00:00:00 0 6816 24.6 23.97 25.07 0 0 0
2017-06-27 01:00:00 0 6816 23.2 22.57 23.78 0 0 0
2017-06-27 02:00:00 0 6816 22.36 21.79 22.73 0 0 0
2017-06-27 03:00:00 0 6806 21.62 20.85 22.13 0 0 0
2017-06-27 04:00:00 0 6796 20.28 19.75 20.64 0 0 0
2017-06-27 05:00:00 0 6806 19.23 19.04 19.57 0 0 0